Time;durP1;ratioP1;P1;durP2;ratioP2;P2;SDS_P1;SDS_P2;PMS_P1;PMS_P2;Temp;Humidity;BMP_temperature;BMP_pressure;BME280_temperature;BME280_humidity;BME280_pressure;Samples;Min_cycle;Max_cycle;Signal;HPM_P1;HPM_P2
2022/05/30 00:01:12;;;;;;;12.20;5.05;;;;;;;9.62;92.36;100538.69;5041964;28;20054;-90
2022/05/30 00:03:40;;;;;;;6.85;4.60;;;;;;;9.55;92.18;100535.84;5042618;28;20087;-90
2022/05/30 00:06:08;;;;;;;9.05;5.07;;;;;;;9.64;92.31;100537.56;5041872;28;20424;-90
2022/05/30 00:08:38;;;;;;;12.80;5.30;;;;;;;9.55;92.32;100522.78;5040556;28;20060;-90
2022/05/30 00:11:06;;;;;;;8.75;5.15;;;;;;;9.61;92.00;100545.69;5040527;28;20073;-90
2022/05/30 00:13:33;;;;;;;13.02;5.03;;;;;;;9.55;92.78;100538.47;5040548;28;20045;-89
2022/05/30 00:16:04;;;;;;;9.50;5.07;;;;;;;9.54;93.49;100536.00;5039063;28;20068;-91
2022/05/30 00:18:31;;;;;;;8.93;4.47;;;;;;;9.46;94.10;100536.75;5039266;28;20412;-90
2022/05/30 00:21:00;;;;;;;16.05;5.03;;;;;;;9.47;93.96;100541.00;5039436;28;20045;-92
2022/05/30 00:23:26;;;;;;;8.90;4.85;;;;;;;9.41;94.03;100525.97;5039195;28;20049;-91
2022/05/30 00:25:54;;;;;;;7.90;5.13;;;;;;;9.53;93.58;100539.59;5038821;28;20099;-92
2022/05/30 00:28:22;;;;;;;12.77;5.20;;;;;;;9.43;92.88;100528.44;5038401;28;20041;-91
2022/05/30 00:30:49;;;;;;;12.10;5.00;;;;;;;9.38;92.66;100520.22;5039282;28;20054;-90
2022/05/30 00:33:17;;;;;;;10.60;4.63;;;;;;;9.40;93.28;100508.66;5039536;28;20045;-90
2022/05/30 00:35:45;;;;;;;8.25;5.30;;;;;;;9.42;93.25;100511.13;5038229;28;20054;-91
2022/05/30 00:38:14;;;;;;;9.23;5.03;;;;;;;9.59;93.93;100542.41;5038426;28;20045;-90
2022/05/30 00:40:42;;;;;;;6.55;4.30;;;;;;;9.58;93.47;100539.94;5039021;28;20045;-91
2022/05/30 00:43:21;;;;;;;8.60;4.93;;;;;;;9.51;93.87;100538.91;5039605;28;20045;-92
2022/05/30 00:45:48;;;;;;;7.22;5.10;;;;;;;9.44;94.24;100515.22;5039931;28;20061;-91
2022/05/30 00:48:16;;;;;;;14.93;5.43;;;;;;;9.59;93.64;100531.16;5039726;28;20045;-91
2022/05/30 00:50:43;;;;;;;9.98;4.97;;;;;;;9.50;93.00;100519.81;5041283;28;20135;-90
2022/05/30 00:53:12;;;;;;;10.60;4.88;;;;;;;9.56;93.26;100524.44;5040058;28;20076;-91
2022/05/30 00:55:41;;;;;;;14.15;4.95;;;;;;;9.49;93.39;100512.13;5039499;28;20195;-90
2022/05/30 00:58:11;;;;;;;12.60;4.82;;;;;;;9.50;93.33;100508.53;5039170;28;20056;-91
2022/05/30 01:00:38;;;;;;;11.50;4.90;;;;;;;9.56;93.53;100521.81;5039853;28;20049;-90
2022/05/30 01:08:45;;;;;;;10.30;4.68;;;;;;;9.53;92.62;100516.91;5015404;28;20124;-92
2022/05/30 01:11:13;;;;;;;10.15;5.45;;;;;;;9.59;93.11;100525.91;5038778;28;20053;-90
2022/05/30 01:13:41;;;;;;;12.55;5.35;;;;;;;9.53;92.82;100523.91;5040128;28;20041;-91
2022/05/30 01:16:07;;;;;;;12.55;5.30;;;;;;;9.49;92.91;100518.16;5039254;28;20049;-91
2022/05/30 01:18:39;;;;;;;15.45;5.28;;;;;;;9.46;92.27;100508.03;5039362;28;20099;-90
2022/05/30 01:21:27;;;;;;;9.80;5.18;;;;;;;9.49;92.79;100505.09;5039785;28;20061;-91
2022/05/30 01:24:13;;;;;;;9.77;5.57;;;;;;;9.53;91.87;100505.63;5039971;28;20053;-90
2022/05/30 01:27:00;;;;;;;14.35;5.68;;;;;;;9.48;91.56;100493.03;5040900;28;20045;-91
2022/05/30 01:29:34;;;;;;;10.55;5.80;;;;;;;9.38;91.21;100488.88;5043601;28;20107;-91
2022/05/30 01:32:01;;;;;;;15.23;8.05;;;;;;;9.51;91.69;100508.38;5044076;28;20065;-90
2022/05/30 01:34:29;;;;;;;10.35;6.50;;;;;;;9.54;92.07;100515.94;5043141;28;20060;-91
2022/05/30 01:36:56;;;;;;;14.85;6.85;;;;;;;9.50;92.52;100498.91;5043614;28;20046;-90
2022/05/30 01:39:23;;;;;;;11.45;6.07;;;;;;;9.49;92.37;100492.06;5043207;28;20060;-91
2022/05/30 01:41:49;;;;;;;9.57;6.50;;;;;;;9.51;92.49;100511.00;5043329;28;20042;-91
2022/05/30 01:44:17;;;;;;;13.23;6.00;;;;;;;9.30;92.44;100471.34;5040470;28;20049;-91
2022/05/30 01:46:45;;;;;;;10.98;6.25;;;;;;;9.35;92.06;100502.25;5041101;28;20119;-90
2022/05/30 01:49:12;;;;;;;12.13;6.28;;;;;;;9.26;92.30;100483.06;5041299;28;20065;-91
2022/05/30 01:51:39;;;;;;;12.18;6.05;;;;;;;9.29;92.14;100482.78;5040626;28;20053;-91
2022/05/30 01:54:06;;;;;;;13.07;6.22;;;;;;;9.32;91.88;100487.69;5041484;28;20560;-91
2022/05/30 01:56:33;;;;;;;13.20;5.93;;;;;;;9.28;92.27;100491.56;5041287;28;20050;-92
2022/05/30 01:59:00;;;;;;;12.70;7.20;;;;;;;9.18;91.90;100483.00;5042240;28;20443;-91
2022/05/30 02:01:29;;;;;;;14.13;7.30;;;;;;;9.21;91.85;100487.94;5041282;28;20141;-91
2022/05/30 02:03:57;;;;;;;12.23;5.57;;;;;;;9.11;91.93;100485.38;5040541;28;20056;-91
2022/05/30 02:06:26;;;;;;;10.32;5.50;;;;;;;9.09;92.25;100487.31;5041579;28;20424;-92
2022/05/30 02:08:54;;;;;;;11.93;5.85;;;;;;;9.02;92.00;100472.41;5041595;28;20049;-90
2022/05/30 02:11:21;;;;;;;8.07;5.35;;;;;;;9.11;92.29;100495.00;5041535;28;20049;-90
2022/05/30 02:13:48;;;;;;;10.77;6.07;;;;;;;9.09;92.00;100479.50;5041025;28;20087;-91
2022/05/30 02:19:02;;;;;;;11.40;5.95;;;;;;;9.18;92.32;100483.00;5040326;28;20055;-91
2022/05/30 02:21:31;;;;;;;14.50;6.57;;;;;;;9.17;92.94;100489.19;5040602;28;20419;-90
2022/05/30 02:23:58;;;;;;;12.43;5.38;;;;;;;9.10;92.58;100485.53;5040288;28;20107;-89
2022/05/30 02:26:25;;;;;;;12.18;6.25;;;;;;;9.13;93.12;100490.47;5039833;28;20119;-90
2022/05/30 02:28:52;;;;;;;12.80;5.85;;;;;;;9.07;93.07;100465.78;5040414;28;20077;-90
2022/05/30 02:31:19;;;;;;;10.85;5.72;;;;;;;9.08;93.55;100466.59;5039826;28;20076;-90
2022/05/30 02:36:41;;;;;;;12.00;5.80;;;;;;;9.14;92.95;100477.25;5040117;28;20053;-90
2022/05/30 02:39:08;;;;;;;9.77;5.72;;;;;;;9.07;93.42;100464.94;5038946;28;20104;-90
2022/05/30 02:41:35;;;;;;;13.57;5.50;;;;;;;9.03;93.21;100464.44;5040083;28;20087;-90
2022/05/30 02:44:02;;;;;;;14.25;5.75;;;;;;;9.12;94.23;100475.75;5040493;28;20167;-90
2022/05/30 02:46:29;;;;;;;10.80;5.50;;;;;;;9.21;95.46;100483.53;5039981;28;20103;-91
2022/05/30 02:48:56;;;;;;;9.52;6.03;;;;;;;8.97;95.04;100465.88;5039829;28;20049;-91
2022/05/30 02:51:24;;;;;;;13.40;5.40;;;;;;;8.97;94.87;100468.50;5039457;28;20069;-91
2022/05/30 02:53:52;;;;;;;11.80;5.63;;;;;;;8.89;95.47;100463.19;5040408;28;20053;-90
2022/05/30 02:56:19;;;;;;;11.10;5.38;;;;;;;8.87;95.78;100457.31;5040247;28;20072;-91
2022/05/30 02:58:47;;;;;;;11.55;5.38;;;;;;;8.96;95.81;100479.06;5039886;28;20419;-91
2022/05/30 03:01:14;;;;;;;8.23;5.00;;;;;;;8.80;96.28;100464.06;5040463;28;20053;-90
2022/05/30 03:03:41;;;;;;;10.18;5.20;;;;;;;8.93;96.50;100474.97;5040345;28;20103;-91
2022/05/30 03:06:08;;;;;;;9.73;5.50;;;;;;;8.80;95.92;100456.25;5040535;28;20045;-92
2022/05/30 03:08:35;;;;;;;10.98;5.30;;;;;;;8.88;95.62;100460.72;5040297;28;20060;-91
2022/05/30 03:11:04;;;;;;;14.65;5.50;;;;;;;9.06;95.98;100481.59;5040122;28;20574;-90
2022/05/30 03:13:31;;;;;;;13.13;5.43;;;;;;;9.10;95.33;100488.16;5040435;28;20063;-90
2022/05/30 03:15:58;;;;;;;9.55;5.30;;;;;;;9.15;94.75;100486.72;5039840;28;20095;-90
2022/05/30 03:18:26;;;;;;;13.40;5.80;;;;;;;9.06;94.58;100478.97;5039689;28;20137;-90
2022/05/30 03:20:53;;;;;;;9.68;5.80;;;;;;;9.06;94.93;100484.19;5039306;28;20077;-90
2022/05/30 03:23:20;;;;;;;12.00;5.15;;;;;;;9.04;95.26;100491.34;5039233;28;20136;-91
2022/05/30 03:25:47;;;;;;;14.90;5.57;;;;;;;8.95;94.66;100473.03;5039097;28;20049;-92
2022/05/30 03:28:15;;;;;;;12.65;5.78;;;;;;;9.01;94.56;100486.44;5039033;28;20064;-92
2022/05/30 03:30:42;;;;;;;9.48;5.60;;;;;;;9.03;94.39;100484.50;5039405;28;20144;-91
2022/05/30 03:33:11;;;;;;;11.05;5.68;;;;;;;9.02;94.69;100488.88;5038666;28;20053;-92
2022/05/30 03:35:39;;;;;;;14.52;5.80;;;;;;;9.08;95.07;100487.47;5037495;28;20052;-91
2022/05/30 03:38:08;;;;;;;18.27;6.90;;;;;;;9.07;95.16;100488.44;5038861;28;20123;-91
2022/05/30 03:40:37;;;;;;;10.27;5.47;;;;;;;9.12;94.76;100494.03;5038567;28;20041;-91
2022/05/30 03:43:07;;;;;;;12.45;5.57;;;;;;;9.19;94.68;100495.09;5039090;28;20068;-90
2022/05/30 03:45:36;;;;;;;12.30;5.20;;;;;;;9.14;94.40;100484.28;5040189;28;20424;-92
2022/05/30 03:48:03;;;;;;;9.82;4.90;;;;;;;9.26;93.95;100501.34;5039611;28;20056;-90
2022/05/30 03:50:29;;;;;;;8.82;5.40;;;;;;;9.23;94.11;100488.59;5039208;28;20129;-91
2022/05/30 03:52:56;;;;;;;10.82;5.13;;;;;;;9.28;93.16;100500.22;5040384;28;20053;-90
2022/05/30 03:55:24;;;;;;;14.50;5.13;;;;;;;9.18;93.42;100483.00;5040085;28;20459;-90
2022/05/30 03:57:52;;;;;;;10.60;5.20;;;;;;;9.18;93.71;100493.44;5040314;28;20056;-91
2022/05/30 04:00:21;;;;;;;12.35;6.50;;;;;;;9.11;93.13;100492.41;5039954;28;20084;-91
2022/05/30 04:02:50;;;;;;;12.63;4.88;;;;;;;9.11;92.45;100493.22;5040386;28;20079;-91
2022/05/30 04:05:17;;;;;;;11.00;5.05;;;;;;;9.29;92.99;100506.28;5041569;28;20127;-92
2022/05/30 04:07:44;;;;;;;9.18;5.18;;;;;;;9.31;92.86;100499.94;5043457;28;20500;-91
2022/05/30 04:10:11;;;;;;;11.20;5.40;;;;;;;9.27;92.27;100487.31;5044385;28;20064;-89
2022/05/30 04:12:39;;;;;;;12.93;5.30;;;;;;;9.40;92.70;100492.16;5045193;28;20053;-90
2022/05/30 04:15:09;;;;;;;12.98;5.80;;;;;;;9.43;91.41;100505.75;5046462;28;20059;-91
2022/05/30 04:17:37;;;;;;;12.60;5.20;;;;;;;9.35;91.52;100478.75;5046427;28;20135;-90
2022/05/30 04:20:10;;;;;;;9.25;5.05;;;;;;;9.47;91.46;100504.44;5054874;28;20041;-91
2022/05/30 04:22:37;;;;;;;10.32;4.82;;;;;;;9.52;91.21;100511.81;5056502;28;20068;-91
2022/05/30 04:25:05;;;;;;;15.15;5.50;;;;;;;9.46;92.15;100507.19;5056076;28;20065;-91
2022/05/30 04:27:32;;;;;;;11.85;6.07;;;;;;;9.42;92.13;100501.50;5056997;28;20029;-91
2022/05/30 04:29:59;;;;;;;13.05;6.10;;;;;;;9.54;91.80;100515.94;5056515;28;20033;-91
2022/05/30 04:32:27;;;;;;;14.43;5.85;;;;;;;9.54;91.76;100515.94;5055573;28;20050;-90
2022/05/30 04:34:53;;;;;;;15.88;6.05;;;;;;;9.49;91.26;100499.88;5055488;28;20042;-90
2022/05/30 04:37:22;;;;;;;10.40;5.28;;;;;;;9.48;91.26;100495.63;5055497;28;20053;-91
2022/05/30 04:39:49;;;;;;;15.63;6.05;;;;;;;9.67;90.73;100512.09;5055689;28;20089;-91
2022/05/30 04:42:16;;;;;;;13.90;5.15;;;;;;;9.68;89.78;100508.50;5056505;28;20045;-91
2022/05/30 04:44:43;;;;;;;10.27;4.97;;;;;;;9.79;89.56;100514.31;5055876;28;20033;-90
2022/05/30 04:47:12;;;;;;;20.63;5.75;;;;;;;9.78;89.66;100506.63;5054773;28;20397;-90
2022/05/30 04:49:39;;;;;;;14.02;4.90;;;;;;;9.81;88.84;100508.94;5041600;28;20045;-90
2022/05/30 04:52:09;;;;;;;11.27;5.22;;;;;;;9.85;89.04;100491.97;5040014;28;20050;-90
2022/05/30 04:54:45;;;;;;;12.27;5.30;;;;;;;9.94;88.30;100512.75;5042066;28;20152;-90
2022/05/30 04:57:13;;;;;;;13.80;5.28;;;;;;;9.97;88.38;100502.00;5041004;28;20054;-90
2022/05/30 04:59:41;;;;;;;12.52;5.18;;;;;;;10.03;88.68;100511.00;5041225;28;20033;-91
2022/05/30 05:02:10;;;;;;;12.00;5.00;;;;;;;10.05;88.21;100506.44;5040961;28;20045;-91
2022/05/30 05:04:45;;;;;;;12.25;5.60;;;;;;;10.06;88.00;100507.25;5039537;28;20064;-89
2022/05/30 05:07:12;;;;;;;8.18;5.00;;;;;;;9.98;88.34;100503.63;5040071;28;20049;-90
2022/05/30 05:09:52;;;;;;;10.07;5.50;;;;;;;10.13;88.49;100511.72;5041390;28;20059;-90
2022/05/30 05:12:20;;;;;;;12.75;5.47;;;;;;;10.28;87.56;100536.34;5038525;28;20507;-91
2022/05/30 05:14:46;;;;;;;13.30;5.18;;;;;;;10.34;87.86;100528.84;5037978;28;20052;-91
2022/05/30 05:17:14;;;;;;;10.73;5.10;;;;;;;10.32;88.21;100533.44;5038737;28;20061;-90
2022/05/30 05:19:42;;;;;;;13.52;5.28;;;;;;;10.41;87.82;100540.31;5039617;28;20204;-91
2022/05/30 05:22:14;;;;;;;11.20;5.55;;;;;;;10.32;88.24;100547.31;5040379;28;20049;-90
2022/05/30 05:24:40;;;;;;;12.40;6.05;;;;;;;10.44;87.83;100546.03;5040350;28;20077;-90
2022/05/30 05:27:08;;;;;;;12.30;6.65;;;;;;;10.51;88.08;100541.00;5042125;28;20107;-89
2022/05/30 05:29:35;;;;;;;17.15;6.38;;;;;;;10.48;87.70;100536.91;5042249;28;20052;-91
2022/05/30 05:32:04;;;;;;;10.20;5.03;;;;;;;10.61;87.48;100531.22;5043648;28;20057;-90
2022/05/30 05:34:30;;;;;;;11.70;5.72;;;;;;;10.74;87.30;100542.09;5044769;28;20076;-89
2022/05/30 05:36:57;;;;;;;9.95;5.40;;;;;;;10.76;85.78;100550.59;5044541;28;20136;-91
2022/05/30 05:39:24;;;;;;;11.18;5.07;;;;;;;10.85;84.51;100543.59;5047359;28;20041;-90
2022/05/30 05:41:50;;;;;;;12.82;5.88;;;;;;;10.91;84.05;100559.44;5043872;28;20172;-91
2022/05/30 05:44:19;;;;;;;9.63;5.18;;;;;;;10.93;83.63;100541.78;5045554;28;20045;-91
2022/05/30 05:46:45;;;;;;;10.32;5.00;;;;;;;11.16;82.56;100567.38;5045034;28;20050;-90
2022/05/30 05:49:12;;;;;;;15.20;5.43;;;;;;;11.12;81.70;100545.09;5042335;28;20555;-91
2022/05/30 05:51:40;;;;;;;10.75;5.10;;;;;;;11.30;81.49;100553.66;5044238;28;20515;-91
2022/05/30 05:54:08;;;;;;;10.40;5.70;;;;;;;11.36;81.05;100558.22;5046851;28;20091;-92
2022/05/30 05:56:35;;;;;;;10.30;5.05;;;;;;;11.48;81.50;100562.16;5043130;28;20049;-90
2022/05/30 05:59:02;;;;;;;15.15;5.40;;;;;;;11.46;82.40;100566.75;5041302;28;20045;-89
2022/05/30 06:01:33;;;;;;;18.20;5.82;;;;;;;11.33;80.30;100569.03;5044534;28;20050;-91
2022/05/30 06:04:03;;;;;;;10.10;5.50;;;;;;;10.89;80.13;100540.47;5048963;28;20041;-93
2022/05/30 06:06:30;;;;;;;15.82;6.95;;;;;;;10.82;80.25;100560.44;5050210;28;20072;-89
2022/05/30 06:08:59;;;;;;;17.23;6.82;;;;;;;11.11;81.17;100569.66;5035998;28;20053;-89
2022/05/30 06:11:26;;;;;;;12.57;6.53;;;;;;;11.15;78.13;100568.34;5036455;28;20053;-90
2022/05/30 06:13:53;;;;;;;13.38;6.20;;;;;;;11.13;78.98;100562.44;5039787;28;20041;-89
2022/05/30 06:16:22;;;;;;;16.05;7.03;;;;;;;10.98;77.45;100562.25;5039769;28;20056;-90
2022/05/30 06:18:53;;;;;;;19.17;6.47;;;;;;;11.03;78.97;100567.00;5040732;28;20076;-90
2022/05/30 06:21:20;;;;;;;16.23;6.50;;;;;;;11.20;78.68;100573.94;5040497;28;20077;-89
2022/05/30 06:23:48;;;;;;;17.85;7.40;;;;;;;11.10;77.88;100568.00;5041300;28;20718;-90
2022/05/30 06:26:15;;;;;;;15.25;7.18;;;;;;;11.22;78.68;100558.88;5043724;28;20049;-90
2022/05/30 06:28:43;;;;;;;12.57;6.22;;;;;;;11.32;77.90;100577.88;5042352;28;20056;-90
2022/05/30 06:31:11;;;;;;;13.23;6.35;;;;;;;11.50;77.39;100585.56;5042423;28;20091;-89
2022/05/30 06:33:39;;;;;;;12.88;6.07;;;;;;;11.66;77.63;100577.72;5041534;28;20053;-89
2022/05/30 06:36:09;;;;;;;17.00;6.82;;;;;;;11.84;77.40;100588.03;5041688;28;20053;-89
2022/05/30 06:38:36;;;;;;;13.82;6.97;;;;;;;11.77;75.90;100582.69;5041172;28;20334;-90
2022/05/30 06:41:11;;;;;;;19.25;6.22;;;;;;;11.74;75.42;100584.78;5041892;28;20493;-89
2022/05/30 06:43:37;;;;;;;12.45;6.22;;;;;;;11.77;75.79;100593.16;5041953;28;20077;-90
2022/05/30 06:46:04;;;;;;;20.65;6.30;;;;;;;11.67;74.28;100591.66;5044724;28;20076;-90
2022/05/30 06:48:32;;;;;;;18.65;8.25;;;;;;;11.79;75.85;100585.13;5046682;28;20064;-90
2022/05/30 06:50:58;;;;;;;14.95;6.25;;;;;;;11.89;73.84;100604.09;5042427;28;20053;-90
2022/05/30 06:53:27;;;;;;;14.73;6.15;;;;;;;11.79;74.14;100582.50;5042319;28;20053;-89
2022/05/30 06:55:53;;;;;;;13.63;5.38;;;;;;;11.82;73.02;100577.72;5041293;28;20069;-93
2022/05/30 06:58:20;;;;;;;16.10;5.63;;;;;;;11.96;73.59;100597.22;5041250;28;20049;-91
2022/05/30 07:00:48;;;;;;;15.50;5.57;;;;;;;12.05;72.28;100593.59;5039934;28;20089;-90
2022/05/30 07:03:16;;;;;;;11.80;6.47;;;;;;;12.11;71.60;100600.81;5040508;28;20041;-90
2022/05/30 07:05:44;;;;;;;16.77;6.15;;;;;;;11.84;72.15;100595.91;5040396;28;20069;-90
2022/05/30 07:08:12;;;;;;;12.45;5.47;;;;;;;12.26;71.87;100611.47;5040886;28;20096;-89
2022/05/30 07:10:42;;;;;;;18.70;5.68;;;;;;;12.39;72.43;100605.66;5041143;28;20416;-88
2022/05/30 07:13:09;;;;;;;13.32;5.60;;;;;;;12.51;69.81;100609.56;5040749;28;20492;-89
2022/05/30 07:15:36;;;;;;;13.80;6.07;;;;;;;12.53;70.45;100610.22;5043024;28;20048;-90
2022/05/30 07:18:09;;;;;;;14.65;5.70;;;;;;;12.58;69.68;100607.91;5042061;28;20057;-89
2022/05/30 07:20:36;;;;;;;12.68;5.60;;;;;;;12.78;69.62;100609.13;5044232;28;20111;-89
2022/05/30 07:23:03;;;;;;;14.38;5.72;;;;;;;12.87;68.38;100610.72;5045145;28;20049;-90
2022/05/30 07:25:29;;;;;;;16.25;5.75;;;;;;;13.22;68.12;100611.25;5041704;28;20125;-91
2022/05/30 07:27:57;;;;;;;18.00;5.65;;;;;;;13.27;67.05;100620.22;5042440;28;20046;-88
2022/05/30 07:30:24;;;;;;;18.60;6.22;;;;;;;12.74;67.80;100592.09;5045245;28;20500;-91
2022/05/30 07:32:51;;;;;;;12.73;5.57;;;;;;;13.13;67.08;100614.88;5040066;28;20069;-92
2022/05/30 07:35:19;;;;;;;13.48;5.97;;;;;;;13.32;65.72;100590.78;5041484;28;20119;-91
2022/05/30 07:37:46;;;;;;;13.05;5.55;;;;;;;13.57;64.86;100615.94;5043132;28;20041;-90
2022/05/30 07:40:14;;;;;;;11.30;6.10;;;;;;;13.75;63.40;100612.16;5041804;28;20080;-90
2022/05/30 07:42:41;;;;;;;16.10;5.50;;;;;;;13.59;63.98;100616.56;5042996;28;20476;-90
2022/05/30 07:45:10;;;;;;;18.30;6.40;;;;;;;13.38;65.21;100598.00;5041155;28;20067;-90
2022/05/30 07:47:37;;;;;;;11.55;5.32;;;;;;;13.41;65.59;100600.28;5042861;28;20080;-90
2022/05/30 07:50:06;;;;;;;16.90;5.18;;;;;;;13.49;65.09;100607.28;5040993;28;20057;-88
2022/05/30 07:52:34;;;;;;;14.27;5.50;;;;;;;13.48;64.52;100610.91;5040201;28;20099;-91
2022/05/30 07:55:02;;;;;;;15.95;5.70;;;;;;;13.89;64.21;100624.53;5039674;28;20046;-87
2022/05/30 08:00:14;;;;;;;15.18;5.78;;;;;;;13.99;64.00;100609.34;5038182;28;20057;-87
2022/05/30 08:02:41;;;;;;;9.52;4.75;;;;;;;14.18;63.98;100621.97;5036580;28;20049;-88
2022/05/30 08:05:10;;;;;;;13.77;5.80;;;;;;;13.90;61.30;100615.66;5038190;28;20053;-89
2022/05/30 08:07:37;;;;;;;13.43;5.35;;;;;;;14.06;63.27;100612.88;5038507;28;20084;-88
2022/05/30 08:10:04;;;;;;;15.43;6.18;;;;;;;14.18;62.79;100621.97;5038928;28;20092;-88
2022/05/30 08:12:32;;;;;;;14.75;5.72;;;;;;;14.56;59.08;100616.69;5041384;28;20416;-91
2022/05/30 08:14:59;;;;;;;16.85;6.38;;;;;;;14.49;59.48;100608.69;5044497;28;20050;-90
2022/05/30 08:17:27;;;;;;;11.88;6.18;;;;;;;14.65;60.84;100605.03;5041794;28;20100;-90
2022/05/30 08:19:54;;;;;;;15.73;6.80;;;;;;;14.62;58.61;100609.88;5043842;28;20068;-90
2022/05/30 08:22:22;;;;;;;18.35;6.50;;;;;;;14.58;59.35;100594.44;5043347;28;20144;-90
2022/05/30 08:24:51;;;;;;;17.23;7.45;;;;;;;15.31;59.14;100610.25;5044788;28;20049;-90
2022/05/30 08:27:25;;;;;;;17.60;7.93;;;;;;;14.81;56.32;100602.19;5046958;28;20411;-91
2022/05/30 08:29:51;;;;;;;16.88;6.82;;;;;;;14.68;58.44;100609.94;5050893;28;20506;-90
2022/05/30 08:32:18;;;;;;;13.13;6.13;;;;;;;15.05;61.85;100626.59;5046532;28;20049;-90
2022/05/30 08:34:46;;;;;;;10.90;6.00;;;;;;;14.87;61.95;100624.34;5041606;28;20060;-89
2022/05/30 08:37:13;;;;;;;15.23;6.22;;;;;;;15.01;59.88;100604.25;5039735;28;20057;-89
2022/05/30 08:42:29;;;;;;;15.38;6.93;;;;;;;14.77;58.62;100618.56;5038154;28;20152;-89
2022/05/30 08:44:56;;;;;;;11.60;6.50;;;;;;;14.52;58.53;100615.41;5036980;28;20076;-88
2022/05/30 08:47:37;;;;;;;15.65;6.70;;;;;;;14.63;59.79;100617.59;5038283;28;20085;-87
2022/05/30 08:50:13;;;;;;;15.00;7.82;;;;;;;14.64;59.15;100624.50;5037497;28;20041;-87
2022/05/30 08:52:53;;;;;;;11.40;6.45;;;;;;;14.69;59.74;100627.38;5037307;28;20096;-87
2022/05/30 08:55:28;;;;;;;11.60;6.60;;;;;;;14.88;57.63;100624.19;5037411;28;20115;-87
2022/05/30 08:58:05;;;;;;;12.18;5.95;;;;;;;15.16;57.53;100624.28;5036875;28;20364;-87
2022/05/30 09:00:37;;;;;;;15.13;6.32;;;;;;;15.39;54.80;100618.03;5035884;28;20111;-88
2022/05/30 09:03:10;;;;;;;16.25;6.95;;;;;;;15.14;55.47;100617.56;5036333;28;20059;-87
2022/05/30 09:05:44;;;;;;;13.88;5.72;;;;;;;15.35;55.36;100622.06;5037420;28;20115;-87
2022/05/30 09:08:21;;;;;;;16.02;6.95;;;;;;;15.70;54.13;100617.75;5037105;28;20707;-87
2022/05/30 09:10:57;;;;;;;12.85;4.97;;;;;;;16.17;53.12;100628.47;5037638;28;20088;-87
2022/05/30 09:13:30;;;;;;;12.57;5.03;;;;;;;17.28;50.90;100637.19;5037364;28;20484;-87
2022/05/30 09:16:06;;;;;;;8.05;4.80;;;;;;;17.68;49.61;100632.81;5037624;28;20057;-87
2022/05/30 09:18:41;;;;;;;12.85;4.70;;;;;;;17.29;50.80;100638.81;5036599;28;20092;-87
2022/05/30 09:21:09;;;;;;;9.02;4.60;;;;;;;16.83;50.20;100633.38;5036684;28;20068;-87
2022/05/30 09:23:35;;;;;;;9.02;4.85;;;;;;;16.77;51.92;100629.69;5035815;28;20077;-87
2022/05/30 09:26:03;;;;;;;14.20;5.40;;;;;;;16.42;52.54;100628.03;5036134;28;20129;-87
2022/05/30 09:28:33;;;;;;;14.50;6.00;;;;;;;16.39;52.89;100623.16;5036201;28;20053;-87
2022/05/30 09:31:10;;;;;;;11.45;5.97;;;;;;;15.95;54.57;100624.28;5037366;28;20046;-87
2022/05/30 09:33:40;;;;;;;14.07;5.30;;;;;;;15.26;55.20;100619.53;5037108;28;20056;-87
2022/05/30 09:36:22;;;;;;;13.57;4.78;;;;;;;14.83;56.95;100623.91;5039162;28;20132;-86
2022/05/30 09:38:50;;;;;;;10.93;5.60;;;;;;;14.64;57.38;100624.50;5037467;28;20208;-87
2022/05/30 09:41:22;;;;;;;16.40;6.50;;;;;;;14.45;57.78;100628.47;5038343;28;20053;-86
2022/05/30 09:43:53;;;;;;;13.13;6.13;;;;;;;14.58;58.54;100630.47;5037584;28;20111;-87
2022/05/30 09:46:30;;;;;;;14.95;6.03;;;;;;;14.51;57.99;100630.38;5037761;28;20135;-86
2022/05/30 09:49:09;;;;;;;11.15;5.90;;;;;;;14.57;59.71;100639.38;5040420;28;20069;-87
2022/05/30 09:51:44;;;;;;;15.20;5.88;;;;;;;14.69;58.28;100635.25;5041132;28;20053;-87
2022/05/30 09:54:13;;;;;;;13.98;5.85;;;;;;;14.32;57.60;100630.88;5042967;28;20095;-87
2022/05/30 09:56:45;;;;;;;13.10;6.18;;;;;;;14.48;57.96;100637.81;5043378;28;20069;-87
2022/05/30 09:59:34;;;;;;;11.43;5.87;;;;;;;14.47;56.33;100637.00;5043453;28;20109;-87
2022/05/30 10:02:02;;;;;;;16.55;7.18;;;;;;;14.43;56.35;100632.28;5041985;28;20060;-86
2022/05/30 10:04:36;;;;;;;13.48;6.35;;;;;;;14.72;56.54;100634.91;5042581;28;20089;-86
2022/05/30 10:07:13;;;;;;;9.93;6.20;;;;;;;15.33;53.73;100619.59;5041478;28;20080;-87
2022/05/30 10:09:53;;;;;;;13.57;6.72;;;;;;;15.44;54.09;100627.03;5041520;28;20054;-87
2022/05/30 10:12:30;;;;;;;12.88;6.85;;;;;;;16.54;51.89;100631.78;5042098;28;20080;-86
2022/05/30 10:14:57;;;;;;;13.98;6.72;;;;;;;16.70;49.77;100628.81;5041169;28;20050;-87
2022/05/30 10:17:31;;;;;;;15.65;7.05;;;;;;;16.74;48.36;100632.72;5040686;28;20108;-87
2022/05/30 10:19:59;;;;;;;13.85;7.18;;;;;;;16.81;49.55;100625.63;5040219;28;20072;-86
2022/05/30 10:28:49;;;;;;;11.95;6.57;;;;;;;16.77;48.02;100629.69;5042098;28;20103;-87
2022/05/30 10:31:33;;;;;;;13.00;6.72;;;;;;;16.70;48.94;100623.53;5041099;28;20058;-85
2022/05/30 10:34:18;;;;;;;14.40;6.38;;;;;;;16.35;49.89;100632.47;5040113;28;20089;-87
2022/05/30 10:36:58;;;;;;;12.27;6.55;;;;;;;16.42;50.12;100634.13;5038373;28;20109;-87
2022/05/30 10:39:50;;;;;;;12.75;6.10;;;;;;;16.51;48.92;100637.44;5037914;28;20132;-86
2022/05/30 10:42:22;;;;;;;11.80;6.20;;;;;;;16.80;49.08;100639.84;5040529;28;20049;-89
2022/05/30 10:44:54;;;;;;;13.57;6.10;;;;;;;16.95;49.52;100630.97;5039063;28;20083;-87
2022/05/30 10:47:27;;;;;;;11.05;6.60;;;;;;;16.83;48.90;100644.75;5039217;28;20488;-85
2022/05/30 10:50:06;;;;;;;14.40;6.75;;;;;;;17.07;50.37;100646.06;5038452;28;20397;-85
2022/05/30 10:52:38;;;;;;;13.18;6.55;;;;;;;17.59;48.51;100640.09;5039680;28;20085;-85
2022/05/30 10:55:11;;;;;;;9.45;6.20;;;;;;;17.74;46.87;100647.88;5038652;28;20053;-86
2022/05/30 10:57:42;;;;;;;11.60;6.70;;;;;;;17.51;47.28;100637.63;5038677;28;20064;-87
2022/05/30 11:00:13;;;;;;;13.02;5.60;;;;;;;17.06;46.02;100633.84;5037458;28;20105;-86
2022/05/30 11:02:52;;;;;;;10.63;5.30;;;;;;;17.62;44.71;100638.88;5038338;28;20155;-86
2022/05/30 11:05:25;;;;;;;10.73;5.10;;;;;;;17.54;45.69;100631.94;5038296;28;20109;-86
2022/05/30 11:07:58;;;;;;;10.05;5.80;;;;;;;17.04;46.75;100635.06;5038416;28;20652;-87
2022/05/30 11:10:36;;;;;;;12.68;6.28;;;;;;;17.11;46.85;100641.19;5037610;28;20049;-88
2022/05/30 11:13:09;;;;;;;11.65;5.50;;;;;;;16.76;48.52;100643.09;5037749;28;20068;-86
2022/05/30 11:15:44;;;;;;;9.85;5.30;;;;;;;16.81;46.89;100635.38;5036997;28;20049;-86
2022/05/30 11:18:18;;;;;;;11.93;5.40;;;;;;;16.91;47.93;100647.22;5037750;28;20092;-85
2022/05/30 11:20:54;;;;;;;7.88;5.00;;;;;;;17.20;47.21;100647.94;5038695;28;20101;-89
2022/05/30 11:23:21;;;;;;;9.23;5.65;;;;;;;16.98;45.88;100635.88;5038303;28;20054;-90
2022/05/30 11:26:15;;;;;;;12.73;5.50;;;;;;;16.50;46.57;100630.53;5038451;28;20049;-90
2022/05/30 11:29:09;;;;;;;8.88;5.25;;;;;;;16.37;46.67;100622.53;5038315;28;20072;-91
2022/05/30 11:31:41;;;;;;;7.57;5.40;;;;;;;16.91;46.25;100635.84;5038599;28;20124;-92
2022/05/30 11:34:20;;;;;;;8.25;5.70;;;;;;;17.07;45.79;100639.94;5039157;28;20061;-91
2022/05/30 11:37:07;;;;;;;8.60;5.85;;;;;;;16.90;46.36;100627.09;5038968;28;20050;-91
2022/05/30 11:40:01;;;;;;;9.07;5.60;;;;;;;16.86;47.11;100638.25;5039171;28;20045;-91
2022/05/30 11:42:38;;;;;;;12.63;6.15;;;;;;;16.80;48.50;100639.84;5042635;28;20068;-90
2022/05/30 11:45:13;;;;;;;8.98;5.97;;;;;;;17.09;46.29;100622.06;5044061;28;20132;-91
2022/05/30 11:47:52;;;;;;;9.90;5.07;;;;;;;17.02;46.12;100642.38;5044582;28;20049;-90
2022/05/30 11:50:30;;;;;;;9.25;5.43;;;;;;;16.97;45.75;100636.88;5044605;28;20045;-91
2022/05/30 11:53:25;;;;;;;8.93;4.90;;;;;;;16.96;42.03;100632.63;5041422;28;20052;-91
2022/05/30 11:56:03;;;;;;;9.73;5.15;;;;;;;17.07;42.04;100638.13;5039298;28;20084;-91
2022/05/30 11:58:46;;;;;;;9.05;4.90;;;;;;;17.04;44.14;100624.47;5038879;28;20135;-91